Pagrindinis puslapis
METAR-TAF:

METAR-TAF

Oro uostai :

Ljungbyhed, Švedija

platuma: 56-04N, ilguma: 013-12E, Aukštis: 43 m

Dabartinis oras

Ataskaita buvo paskelbta 32 minutes, ne 06:20 UTC
Ramus vėjas
Temperatūra 1°C
Drėgmė 93%
Slėgis 1026 hPa
Matomumas 10 km arba daugiau

METAR: ESTL 100620Z AUTO 00000KT 9999 SCT001/// BKN003/// 01/00 Q1026

Laikas: 08:52 (06:52 UTC)

Prognozė

Ataskaita buvo paskelbta 22 valandos ir 41 minutes, ne 08:11 UTC
Prognozė galioja nuo 09 metu 09 UTC su 09 metu 11 UTC
Vėjas 15 kt iš Šiaurės Vakarų
Matomumas 10 km arba daugiau
Mažai debesys ne aukštis 3000 ft
Laikinai
nuo 09 metu 09 UTC su 09 metu 11 UTC
Vėjas 15 kt iš Šiaurės Vakarų su gūsio iki 25 kt

TAF: ESTL 090811Z 0909/0911 31015KT 9999 FEW030 TEMPO 0909/0911 31015G25KT

Orai ataskaitas ir orų prognozės (METAR, TAF).

turimą stotys yra geltonos ir raudonos taškus žemėlapyje.

Perkelti pele per norėdami pamatyti stoties vardą.

Tada spustelėkite, norėdami matyti oro stebėjimo ir prognozės.

Norėdami pakeisti žemėlapį: spustelėkite ant žalios mygtukų su juodo kryžiaus žemyn,; žalią mygtuką su brūkšneliu, jei norite nutolinti; arba žalių rodyklių gretimoms žemėlapius.


METAR-TAF: